Time;durP1;ratioP1;P1;durP2;ratioP2;P2;SDS_P1;SDS_P2;PMS_P1;PMS_P2;Temp;Humidity;BMP_temperature;BMP_pressure;BME280_temperature;BME280_humidity;BME280_pressure;Samples;Min_cycle;Max_cycle;Signal;HPM_P1;HPM_P2
2023/03/15 00:01:34;;;;;;;5.63;1.47;;;4.40;99.90;;;;;;4992107;28;20210;-76
2023/03/15 00:04:00;;;;;;;6.53;1.70;;;4.40;99.90;;;;;;4992593;28;20219;-76
2023/03/15 00:06:27;;;;;;;7.07;1.80;;;4.30;99.90;;;;;;4992710;28;20195;-78
2023/03/15 00:08:55;;;;;;;5.77;2.00;;;4.40;99.90;;;;;;4992095;28;20200;-75
2023/03/15 00:11:20;;;;;;;2.90;1.50;;;4.30;99.90;;;;;;4993632;28;20176;-73
2023/03/15 00:13:49;;;;;;;5.00;1.80;;;4.30;99.90;;;;;;4993337;28;20193;-77
2023/03/15 00:16:17;;;;;;;3.83;1.50;;;4.30;99.90;;;;;;4993126;28;20218;-75
2023/03/15 00:18:45;;;;;;;3.07;1.60;;;4.30;99.90;;;;;;4993297;28;20179;-74
2023/03/15 00:21:11;;;;;;;3.97;1.77;;;4.30;99.90;;;;;;5007048;28;20180;-65
2023/03/15 00:23:39;;;;;;;5.37;1.60;;;4.30;99.90;;;;;;5012433;28;20247;-58
2023/03/15 00:26:05;;;;;;;6.67;2.30;;;4.30;99.90;;;;;;5012724;28;20211;-70
2023/03/15 00:28:31;;;;;;;5.93;2.30;;;4.30;99.90;;;;;;5011975;28;20172;-65
2023/03/15 00:31:08;;;;;;;5.10;2.30;;;4.30;99.90;;;;;;5011770;28;20177;-65
2023/03/15 00:33:36;;;;;;;5.33;2.47;;;4.30;99.90;;;;;;5013378;28;20184;-62
2023/03/15 00:36:06;;;;;;;6.17;2.47;;;4.30;99.90;;;;;;5279323;23;20190;-66
2023/03/15 00:38:35;;;;;;;5.90;3.00;;;4.30;99.90;;;;;;4972185;28;20196;-67
2023/03/15 00:41:10;;;;;;;9.00;2.93;;;4.30;99.90;;;;;;4971968;28;20184;-67
2023/03/15 00:43:36;;;;;;;3.30;2.20;;;4.30;99.90;;;;;;4970936;28;20207;-67
2023/03/15 00:46:03;;;;;;;7.97;3.10;;;4.40;99.90;;;;;;4987849;28;20320;-67
2023/03/15 00:48:29;;;;;;;7.33;4.00;;;4.40;99.90;;;;;;4971842;28;20247;-66
2023/03/15 00:51:22;;;;;;;7.50;3.37;;;4.30;99.90;;;;;;4970600;28;20297;-67
2023/03/15 00:53:49;;;;;;;5.93;3.10;;;4.40;99.90;;;;;;4965007;28;20216;-66
2023/03/15 00:56:20;;;;;;;7.93;3.03;;;4.40;99.90;;;;;;4970869;28;20192;-67
2023/03/15 00:58:48;;;;;;;6.90;3.00;;;4.40;99.90;;;;;;4975541;28;20234;-67
2023/03/15 01:01:19;;;;;;;8.03;3.67;;;4.50;99.90;;;;;;4975420;28;20179;-67
2023/03/15 01:03:51;;;;;;;7.07;4.00;;;4.40;99.90;;;;;;4962176;28;20197;-67
2023/03/15 01:06:21;;;;;;;7.53;3.97;;;4.50;99.90;;;;;;4982802;28;20207;-66
2023/03/15 01:08:47;;;;;;;8.87;4.17;;;4.50;99.90;;;;;;4967164;28;20183;-67
2023/03/15 01:11:16;;;;;;;9.57;4.40;;;4.50;99.90;;;;;;4966520;28;20185;-68
2023/03/15 01:13:42;;;;;;;9.93;3.93;;;4.50;99.90;;;;;;4972289;28;20206;-67
2023/03/15 01:16:10;;;;;;;7.30;4.40;;;4.60;99.90;;;;;;4977632;28;20184;-67
2023/03/15 01:18:36;;;;;;;6.30;4.00;;;4.60;99.90;;;;;;4977954;28;20211;-66
2023/03/15 01:21:08;;;;;;;5.67;3.30;;;4.60;99.90;;;;;;4983898;28;20200;-68
2023/03/15 01:23:38;;;;;;;6.90;3.47;;;4.60;99.90;;;;;;4979339;28;20200;-67
2023/03/15 01:26:05;;;;;;;7.53;3.60;;;4.60;99.90;;;;;;4975209;28;20271;-67
2023/03/15 01:28:34;;;;;;;9.43;3.40;;;4.70;99.90;;;;;;4965108;28;20181;-67
2023/03/15 01:31:02;;;;;;;5.23;3.13;;;4.70;99.90;;;;;;4977259;28;20186;-67
2023/03/15 01:33:28;;;;;;;9.03;3.10;;;4.70;99.90;;;;;;4978279;28;20187;-67
2023/03/15 01:36:02;;;;;;;7.27;3.40;;;4.80;99.90;;;;;;4977918;28;20179;-67
2023/03/15 01:38:28;;;;;;;9.90;3.30;;;4.80;99.90;;;;;;4974403;28;20234;-67
2023/03/15 01:40:54;;;;;;;6.70;3.67;;;4.80;99.90;;;;;;4974193;28;20208;-67
2023/03/15 01:43:25;;;;;;;5.43;2.90;;;4.80;99.90;;;;;;4988908;28;20236;-67
2023/03/15 01:46:11;;;;;;;5.97;3.00;;;4.90;99.90;;;;;;4969646;28;20172;-67
2023/03/15 01:48:45;;;;;;;6.07;2.83;;;4.90;99.90;;;;;;4982093;28;20260;-67
2023/03/15 01:51:29;;;;;;;6.13;3.07;;;5.00;99.90;;;;;;4984879;28;20177;-67
2023/03/15 01:54:03;;;;;;;4.40;2.50;;;4.90;99.90;;;;;;4971697;28;20187;-66
2023/03/15 01:56:30;;;;;;;5.00;2.50;;;4.90;99.90;;;;;;4971588;28;20440;-66
2023/03/15 01:59:00;;;;;;;3.10;2.20;;;5.00;99.90;;;;;;4985485;28;20188;-66
2023/03/15 02:01:26;;;;;;;5.00;2.30;;;5.00;99.90;;;;;;4974646;28;20283;-67
2023/03/15 02:04:00;;;;;;;5.53;2.70;;;5.00;99.90;;;;;;4972806;28;20227;-66
2023/03/15 02:06:26;;;;;;;4.20;2.10;;;5.10;99.90;;;;;;4974309;28;20177;-67
2023/03/15 02:09:04;;;;;;;6.97;2.60;;;5.10;99.90;;;;;;4971172;28;20279;-66
2023/03/15 02:11:30;;;;;;;6.17;2.20;;;5.10;99.90;;;;;;4986148;28;20204;-67
2023/03/15 02:13:59;;;;;;;4.87;2.40;;;5.10;99.90;;;;;;4972013;28;20223;-67
2023/03/15 02:16:28;;;;;;;5.83;2.40;;;5.20;99.90;;;;;;4987335;28;20191;-67
2023/03/15 02:18:54;;;;;;;6.10;2.90;;;5.20;99.90;;;;;;4988092;28;20181;-67
2023/03/15 02:21:22;;;;;;;3.77;2.47;;;5.20;99.90;;;;;;4987440;28;20215;-67
2023/03/15 02:24:12;;;;;;;5.30;2.57;;;5.30;99.90;;;;;;4988814;28;20367;-67
2023/03/15 02:26:43;;;;;;;4.60;2.87;;;5.30;99.90;;;;;;4959034;28;20188;-67
2023/03/15 02:29:11;;;;;;;5.67;3.17;;;5.30;99.90;;;;;;4970156;28;20172;-66
2023/03/15 02:31:37;;;;;;;5.87;2.87;;;5.30;99.90;;;;;;4974709;28;20223;-67
2023/03/15 02:34:09;;;;;;;8.47;2.90;;;5.20;99.90;;;;;;4966644;28;20191;-67
2023/03/15 02:36:38;;;;;;;4.17;2.37;;;5.20;99.90;;;;;;4985006;28;20290;-67
2023/03/15 02:39:20;;;;;;;4.40;2.90;;;5.10;99.90;;;;;;4973926;28;20286;-67
2023/03/15 02:41:56;;;;;;;4.53;3.00;;;5.10;99.90;;;;;;4988161;28;20191;-67
2023/03/15 02:44:30;;;;;;;5.10;2.80;;;5.10;99.90;;;;;;4974883;28;20200;-67
2023/03/15 02:47:07;;;;;;;5.93;2.90;;;5.10;99.90;;;;;;4974381;28;20196;-67
2023/03/15 02:49:40;;;;;;;3.90;2.63;;;5.10;99.90;;;;;;4973196;28;20176;-67
2023/03/15 02:52:08;;;;;;;7.43;2.97;;;5.10;99.90;;;;;;4967372;28;20185;-68
2023/03/15 02:54:34;;;;;;;3.50;2.30;;;5.00;99.90;;;;;;4967444;28;20180;-68
2023/03/15 02:57:01;;;;;;;5.03;2.63;;;5.00;99.90;;;;;;4989009;28;20279;-68
2023/03/15 02:59:26;;;;;;;5.53;2.87;;;4.90;99.90;;;;;;4978946;28;20187;-68
2023/03/15 03:01:54;;;;;;;6.77;2.80;;;4.80;99.90;;;;;;4988104;28;20431;-67
2023/03/15 03:04:20;;;;;;;3.23;2.07;;;4.70;99.90;;;;;;4957501;29;20205;-68
2023/03/15 03:06:47;;;;;;;5.70;2.33;;;4.60;99.90;;;;;;4958574;28;20291;-67
2023/03/15 03:09:15;;;;;;;6.90;3.03;;;4.40;99.90;;;;;;4971215;28;20176;-67
2023/03/15 03:11:41;;;;;;;5.50;2.83;;;4.40;99.90;;;;;;4973469;28;20259;-68
2023/03/15 03:14:06;;;;;;;5.90;3.17;;;4.20;99.90;;;;;;4974314;28;20292;-67
2023/03/15 03:16:32;;;;;;;5.67;2.90;;;4.10;99.90;;;;;;4992599;28;20160;-68
2023/03/15 03:19:00;;;;;;;5.60;2.70;;;4.00;99.90;;;;;;4992712;28;20168;-70
2023/03/15 03:21:28;;;;;;;5.13;2.90;;;3.90;99.90;;;;;;4967001;28;20199;-67
2023/03/15 03:23:53;;;;;;;6.27;2.90;;;3.80;99.90;;;;;;4975948;28;20212;-67
2023/03/15 03:26:19;;;;;;;4.03;2.70;;;3.80;99.90;;;;;;4991316;28;20184;-68
2023/03/15 03:28:48;;;;;;;5.00;2.80;;;3.80;99.90;;;;;;4975605;28;20221;-68
2023/03/15 03:31:20;;;;;;;5.30;2.80;;;3.70;99.90;;;;;;4976075;28;20176;-67
2023/03/15 03:33:51;;;;;;;4.83;2.87;;;3.70;99.90;;;;;;4976161;28;20341;-67
2023/03/15 03:36:19;;;;;;;4.13;2.20;;;3.60;99.90;;;;;;4975731;28;20208;-68
2023/03/15 03:38:45;;;;;;;2.73;2.00;;;3.50;99.90;;;;;;4976621;28;20214;-68
2023/03/15 03:41:13;;;;;;;5.77;2.10;;;3.60;99.90;;;;;;4976379;28;20271;-68
2023/03/15 03:43:39;;;;;;;2.50;2.10;;;3.50;99.90;;;;;;4972579;28;20211;-68
2023/03/15 03:46:07;;;;;;;3.80;2.20;;;3.40;99.90;;;;;;4988463;28;20180;-67
2023/03/15 03:48:35;;;;;;;4.10;2.10;;;3.40;99.90;;;;;;4976577;28;20176;-68
2023/03/15 03:51:01;;;;;;;4.43;2.30;;;3.40;99.90;;;;;;4973253;28;20283;-67
2023/03/15 03:53:27;;;;;;;2.33;1.87;;;3.40;99.90;;;;;;4986116;28;20266;-67
2023/03/15 03:55:53;;;;;;;3.73;2.03;;;3.40;99.90;;;;;;4986026;28;20275;-67
2023/03/15 03:58:22;;;;;;;3.80;2.30;;;3.40;99.90;;;;;;4971329;28;20259;-67
2023/03/15 04:00:48;;;;;;;3.90;2.27;;;3.40;99.90;;;;;;4965415;28;20271;-66
2023/03/15 04:03:13;;;;;;;4.40;2.27;;;3.30;99.90;;;;;;4964026;28;20275;-66
2023/03/15 04:05:40;;;;;;;3.10;2.40;;;3.40;99.90;;;;;;4971870;28;20293;-67
2023/03/15 04:08:06;;;;;;;3.33;2.60;;;3.40;99.90;;;;;;4967315;28;20180;-67
2023/03/15 04:10:33;;;;;;;2.90;2.50;;;3.40;99.90;;;;;;4963563;28;20208;-67
2023/03/15 04:13:00;;;;;;;3.57;2.30;;;3.40;99.90;;;;;;4988258;28;20187;-67
2023/03/15 04:15:26;;;;;;;3.67;2.50;;;3.40;99.90;;;;;;4987115;28;20207;-67
2023/03/15 04:17:54;;;;;;;3.03;2.30;;;3.40;99.90;;;;;;4971847;28;20207;-67
2023/03/15 04:20:33;;;;;;;3.77;2.40;;;3.40;99.90;;;;;;4984574;28;20198;-66
2023/03/15 04:23:06;;;;;;;4.27;2.50;;;3.50;99.90;;;;;;4982234;28;20208;-66
2023/03/15 04:25:31;;;;;;;4.37;2.80;;;3.50;99.90;;;;;;4972140;28;20187;-67
2023/03/15 04:28:01;;;;;;;4.70;3.00;;;3.50;99.90;;;;;;4987151;28;20318;-67
2023/03/15 04:30:30;;;;;;;3.47;2.67;;;3.50;99.90;;;;;;4972524;28;20282;-67
2023/03/15 04:33:02;;;;;;;4.50;2.67;;;3.50;99.90;;;;;;4972989;28;20188;-66
2023/03/15 04:35:29;;;;;;;4.10;2.73;;;3.50;99.90;;;;;;4972074;28;20184;-67
2023/03/15 04:37:56;;;;;;;4.40;2.60;;;3.50;99.90;;;;;;4970223;28;20242;-66
2023/03/15 04:40:23;;;;;;;4.47;2.70;;;3.60;99.90;;;;;;4971871;28;20184;-66
2023/03/15 04:42:49;;;;;;;4.03;2.80;;;3.60;99.90;;;;;;4985356;28;20207;-66
2023/03/15 04:45:17;;;;;;;3.70;3.00;;;3.70;99.90;;;;;;4974218;28;20201;-67
2023/03/15 04:47:43;;;;;;;4.30;2.93;;;3.70;99.90;;;;;;4972632;28;20180;-66
2023/03/15 04:50:09;;;;;;;4.80;2.90;;;3.70;99.90;;;;;;4974439;28;20181;-67
2023/03/15 04:52:37;;;;;;;3.93;3.10;;;3.80;99.90;;;;;;4976175;28;20202;-67
2023/03/15 04:55:03;;;;;;;3.67;2.43;;;3.80;99.90;;;;;;4975638;28;20238;-66
2023/03/15 04:57:28;;;;;;;4.40;2.53;;;3.80;99.90;;;;;;4986873;28;20176;-66
2023/03/15 04:59:56;;;;;;;6.07;2.80;;;3.90;99.90;;;;;;4978440;28;20278;-66
2023/03/15 05:02:23;;;;;;;4.50;2.60;;;3.90;99.90;;;;;;4998308;28;20320;-66
2023/03/15 05:04:51;;;;;;;4.53;2.70;;;3.90;99.90;;;;;;4976602;28;20274;-66
2023/03/15 05:07:17;;;;;;;4.57;2.87;;;4.00;99.90;;;;;;4978375;28;20251;-66
2023/03/15 05:09:44;;;;;;;5.90;3.00;;;3.90;99.90;;;;;;4990574;28;20260;-66
2023/03/15 05:12:13;;;;;;;4.53;2.80;;;4.00;99.90;;;;;;4976259;28;20176;-66
2023/03/15 05:14:42;;;;;;;3.87;2.80;;;4.00;99.90;;;;;;4978508;28;20271;-67
2023/03/15 05:17:10;;;;;;;4.13;2.43;;;3.90;99.90;;;;;;4978342;28;20184;-66
2023/03/15 05:19:38;;;;;;;3.13;2.00;;;3.90;99.90;;;;;;4987350;28;20216;-67
2023/03/15 05:22:06;;;;;;;3.07;2.17;;;4.00;99.90;;;;;;4993224;28;20188;-67
2023/03/15 05:24:32;;;;;;;2.20;1.87;;;3.90;99.90;;;;;;4977203;28;20295;-67
2023/03/15 05:26:59;;;;;;;2.57;2.10;;;3.90;99.90;;;;;;4992092;28;20231;-67
2023/03/15 05:29:25;;;;;;;3.17;1.80;;;3.90;99.90;;;;;;4994092;28;20176;-67
2023/03/15 05:31:51;;;;;;;2.23;1.50;;;3.80;99.90;;;;;;4994194;28;20270;-67
2023/03/15 05:34:18;;;;;;;2.00;1.30;;;3.80;99.90;;;;;;4993692;28;20235;-67
2023/03/15 05:36:43;;;;;;;2.50;1.50;;;3.80;99.90;;;;;;4979849;28;20192;-67
2023/03/15 05:39:10;;;;;;;2.27;1.23;;;3.80;99.90;;;;;;5013609;28;20191;-67
2023/03/15 05:41:36;;;;;;;2.77;1.43;;;3.80;99.90;;;;;;4997662;28;20199;-67
2023/03/15 05:44:02;;;;;;;1.93;1.47;;;3.80;99.90;;;;;;4985644;28;20207;-66
2023/03/15 05:46:27;;;;;;;2.07;1.30;;;3.80;99.90;;;;;;4991434;28;20176;-67
2023/03/15 05:48:53;;;;;;;1.83;1.20;;;3.80;99.90;;;;;;4972860;28;20200;-67
2023/03/15 05:51:19;;;;;;;1.10;1.00;;;3.80;99.90;;;;;;4977949;28;20180;-67
2023/03/15 05:53:47;;;;;;;2.33;1.00;;;3.80;99.90;;;;;;4975031;28;20195;-67
2023/03/15 05:56:15;;;;;;;2.97;1.00;;;3.80;99.90;;;;;;4977831;28;20619;-67
2023/03/15 05:58:41;;;;;;;1.13;0.97;;;3.80;99.90;;;;;;4989045;28;20184;-67
2023/03/15 06:01:09;;;;;;;1.27;0.83;;;3.80;99.90;;;;;;4974285;28;20222;-66
2023/03/15 06:03:34;;;;;;;2.37;1.77;;;3.80;99.90;;;;;;4988610;28;20211;-67
2023/03/15 06:06:00;;;;;;;1.67;1.30;;;3.80;99.90;;;;;;4976296;28;20247;-67
2023/03/15 06:08:26;;;;;;;1.70;1.30;;;3.80;99.90;;;;;;4992936;28;20259;-65
2023/03/15 06:10:52;;;;;;;1.30;1.00;;;3.80;99.90;;;;;;4972701;28;20172;-67
2023/03/15 06:13:17;;;;;;;1.37;0.90;;;3.80;99.90;;;;;;4974673;28;20246;-67
2023/03/15 06:15:48;;;;;;;1.67;1.00;;;3.90;99.90;;;;;;4976434;28;20211;-67
2023/03/15 06:18:16;;;;;;;1.40;1.03;;;4.00;99.90;;;;;;4976753;28;20223;-67
2023/03/15 06:20:41;;;;;;;1.00;0.90;;;3.90;99.90;;;;;;4975044;28;20190;-67
2023/03/15 06:23:10;;;;;;;1.87;0.90;;;4.00;99.90;;;;;;4972469;28;20212;-67
2023/03/15 06:25:38;;;;;;;1.37;1.10;;;4.10;99.90;;;;;;4975142;28;20248;-67
2023/03/15 06:28:06;;;;;;;1.10;0.97;;;4.10;99.90;;;;;;4973903;28;20206;-67
2023/03/15 06:30:31;;;;;;;1.43;1.10;;;4.10;99.90;;;;;;4990583;28;20211;-67
2023/03/15 06:32:57;;;;;;;1.63;0.93;;;4.20;99.90;;;;;;4970921;28;20192;-67
2023/03/15 06:35:23;;;;;;;1.17;1.00;;;4.20;99.90;;;;;;4976476;28;20192;-67
2023/03/15 06:37:51;;;;;;;1.60;1.20;;;4.20;99.90;;;;;;4974265;28;20302;-66
2023/03/15 06:40:20;;;;;;;1.60;1.43;;;4.30;99.90;;;;;;4974178;28;20180;-66
2023/03/15 06:42:45;;;;;;;1.73;1.30;;;4.30;99.90;;;;;;4978251;28;20407;-66
2023/03/15 06:45:11;;;;;;;1.83;1.63;;;4.30;99.90;;;;;;4973992;28;20497;-67
2023/03/15 06:47:37;;;;;;;2.23;1.77;;;4.30;99.90;;;;;;4974172;28;20180;-67
2023/03/15 06:50:04;;;;;;;2.40;1.97;;;4.40;99.90;;;;;;4974098;28;20198;-67
2023/03/15 06:52:29;;;;;;;2.50;2.20;;;4.30;99.90;;;;;;4968674;28;20208;-67
2023/03/15 06:54:57;;;;;;;2.93;2.17;;;4.30;99.90;;;;;;4987582;28;20187;-67
2023/03/15 06:57:23;;;;;;;2.67;2.17;;;4.30;99.90;;;;;;4988333;28;20176;-66
2023/03/15 06:59:49;;;;;;;2.47;2.27;;;4.40;99.90;;;;;;4972745;28;20255;-67
2023/03/15 07:02:19;;;;;;;3.00;2.70;;;4.40;99.90;;;;;;4965232;28;20180;-66
2023/03/15 07:04:45;;;;;;;2.83;2.57;;;4.30;99.90;;;;;;4973729;28;20223;-66
2023/03/15 07:07:12;;;;;;;3.73;3.13;;;4.30;99.90;;;;;;4990033;28;20238;-67
2023/03/15 07:09:39;;;;;;;3.83;3.43;;;4.30;99.90;;;;;;4985616;28;20180;-67
2023/03/15 07:12:07;;;;;;;3.87;3.47;;;4.30;99.90;;;;;;4966121;28;20191;-67
2023/03/15 07:14:33;;;;;;;4.10;3.70;;;4.30;99.90;;;;;;4979465;28;20200;-67
2023/03/15 07:16:59;;;;;;;4.83;4.30;;;4.30;99.90;;;;;;5012284;28;20180;-67
2023/03/15 07:19:24;;;;;;;5.27;4.33;;;4.30;99.90;;;;;;4993019;28;20188;-66
2023/03/15 07:21:52;;;;;;;4.20;3.80;;;4.30;99.90;;;;;;4975838;28;20203;-65
2023/03/15 07:24:20;;;;;;;4.60;4.13;;;4.30;99.90;;;;;;4992566;28;20211;-67
2023/03/15 07:26:45;;;;;;;5.27;4.10;;;4.30;99.90;;;;;;4992590;28;20195;-66
2023/03/15 07:29:13;;;;;;;5.00;3.97;;;4.40;99.90;;;;;;4992506;28;20203;-67
2023/03/15 07:31:46;;;;;;;5.50;4.80;;;4.40;99.90;;;;;;4976111;28;20176;-66
2023/03/15 07:34:14;;;;;;;5.47;4.37;;;4.40;99.90;;;;;;4977129;28;20204;-68
2023/03/15 07:36:40;;;;;;;5.53;4.73;;;4.40;99.90;;;;;;4995385;28;20219;-66
2023/03/15 07:39:05;;;;;;;5.70;5.13;;;4.40;99.90;;;;;;4995584;28;20183;-66
2023/03/15 07:41:31;;;;;;;5.07;4.57;;;4.40;99.90;;;;;;4995690;28;20187;-66
2023/03/15 07:43:57;;;;;;;5.83;4.93;;;4.40;99.90;;;;;;4995143;28;20215;-67
2023/03/15 07:46:22;;;;;;;6.10;5.03;;;4.40;99.90;;;;;;4985512;28;20203;-66
2023/03/15 07:48:50;;;;;;;6.23;5.30;;;4.40;99.90;;;;;;4967963;28;20254;-66
2023/03/15 07:51:16;;;;;;;6.43;5.30;;;4.50;99.90;;;;;;4981247;28;20205;-68
2023/03/15 07:53:42;;;;;;;6.53;5.83;;;4.50;99.90;;;;;;4988237;28;20176;-66
2023/03/15 07:56:07;;;;;;;6.40;5.73;;;4.50;99.90;;;;;;4969686;28;20180;-67
2023/03/15 07:58:33;;;;;;;6.93;5.67;;;4.60;99.90;;;;;;4966006;28;20210;-67
2023/03/15 08:00:59;;;;;;;7.40;6.30;;;4.70;99.90;;;;;;4986758;28;20181;-67
2023/03/15 08:03:27;;;;;;;7.53;6.33;;;4.70;99.90;;;;;;4971669;28;20238;-66
2023/03/15 08:05:53;;;;;;;8.27;6.27;;;4.70;99.90;;;;;;4990644;28;20219;-66
2023/03/15 08:08:19;;;;;;;7.73;6.83;;;4.70;99.90;;;;;;4965214;28;20215;-66
2023/03/15 08:10:47;;;;;;;9.00;7.10;;;4.70;99.90;;;;;;4986684;28;20276;-66
2023/03/15 08:13:12;;;;;;;9.30;7.23;;;4.70;99.90;;;;;;4972217;28;20204;-66
2023/03/15 08:15:43;;;;;;;8.90;7.70;;;4.70;99.90;;;;;;4964290;28;20235;-66
2023/03/15 08:18:11;;;;;;;9.73;7.40;;;4.70;99.90;;;;;;4981697;28;20188;-66
2023/03/15 08:20:37;;;;;;;7.87;7.07;;;4.80;99.90;;;;;;4986503;28;20204;-66
2023/03/15 08:23:05;;;;;;;9.07;7.63;;;4.80;99.90;;;;;;4971998;28;20204;-66
2023/03/15 08:25:30;;;;;;;8.30;7.07;;;4.90;99.90;;;;;;4970153;28;20191;-66
2023/03/15 08:27:56;;;;;;;7.87;6.83;;;5.00;99.90;;;;;;4972912;28;20192;-66
2023/03/15 08:30:22;;;;;;;7.50;6.73;;;5.00;99.90;;;;;;4970881;28;20263;-65
2023/03/15 08:32:51;;;;;;;7.83;6.73;;;5.10;99.90;;;;;;4972437;28;20193;-66
2023/03/15 08:35:20;;;;;;;9.40;8.00;;;5.20;99.90;;;;;;4970713;28;20204;-65
2023/03/15 08:37:51;;;;;;;10.17;7.77;;;5.30;99.90;;;;;;4977752;28;20254;-65
2023/03/15 08:40:24;;;;;;;10.93;8.00;;;5.30;99.90;;;;;;4974972;28;20196;-65
2023/03/15 08:42:52;;;;;;;7.13;6.40;;;5.40;99.90;;;;;;4976517;28;20199;-66
2023/03/15 08:45:20;;;;;;;7.30;6.40;;;5.40;99.90;;;;;;4989625;28;20208;-68
2023/03/15 08:47:46;;;;;;;8.20;6.77;;;5.50;99.90;;;;;;4992269;28;20278;-69
2023/03/15 08:50:16;;;;;;;10.00;8.33;;;5.50;99.90;;;;;;4975140;28;20228;-68
2023/03/15 08:52:42;;;;;;;9.00;7.20;;;5.60;99.90;;;;;;4975348;28;20183;-69
2023/03/15 08:55:13;;;;;;;10.30;8.23;;;5.50;99.90;;;;;;4971188;28;20181;-68
2023/03/15 08:57:43;;;;;;;11.97;8.20;;;5.50;99.90;;;;;;4993185;28;20180;-68
2023/03/15 09:00:31;;;;;;;8.50;7.17;;;5.50;99.90;;;;;;4987802;28;20179;-66
2023/03/15 09:02:58;;;;;;;9.23;7.43;;;5.50;99.90;;;;;;4979254;28;20287;-65
2023/03/15 09:05:27;;;;;;;7.80;6.93;;;5.50;99.90;;;;;;4975512;28;20204;-68
2023/03/15 09:07:53;;;;;;;9.47;6.80;;;5.50;99.90;;;;;;4976199;28;20173;-67
2023/03/15 09:10:19;;;;;;;8.73;7.43;;;5.60;99.90;;;;;;4990436;28;20204;-67
2023/03/15 09:12:51;;;;;;;9.10;7.10;;;5.60;99.90;;;;;;4991628;28;20203;-66
2023/03/15 09:15:19;;;;;;;7.87;7.07;;;5.60;99.90;;;;;;4978748;28;20180;-68
2023/03/15 09:17:45;;;;;;;9.50;7.97;;;5.60;99.90;;;;;;4986127;28;20207;-67
2023/03/15 09:20:15;;;;;;;8.73;7.40;;;5.70;99.90;;;;;;4978720;28;20172;-67
2023/03/15 09:22:42;;;;;;;8.93;7.30;;;5.70;99.90;;;;;;4978660;28;20204;-67
2023/03/15 09:25:08;;;;;;;9.10;7.57;;;5.70;99.90;;;;;;4978649;28;20183;-68
2023/03/15 09:27:35;;;;;;;13.10;9.00;;;5.70;99.90;;;;;;4978384;28;20179;-68
2023/03/15 09:30:00;;;;;;;10.43;8.93;;;5.80;99.90;;;;;;4978678;28;20172;-68
2023/03/15 09:32:26;;;;;;;9.70;8.67;;;5.80;99.90;;;;;;4978523;28;20187;-68
2023/03/15 09:34:52;;;;;;;9.63;8.40;;;5.90;99.90;;;;;;4992158;28;20470;-68
2023/03/15 09:37:20;;;;;;;8.93;7.60;;;5.80;99.90;;;;;;4981079;28;20196;-68
2023/03/15 09:39:49;;;;;;;10.17;8.30;;;5.80;99.90;;;;;;4995474;28;20349;-69
2023/03/15 09:42:50;;;;;;;8.97;7.10;;;5.90;99.90;;;;;;4997524;28;20203;-69
2023/03/15 09:45:34;;;;;;;8.40;7.53;;;5.90;99.90;;;;;;4969212;28;20387;-67
2023/03/15 09:48:10;;;;;;;8.03;7.20;;;6.00;99.90;;;;;;4972662;28;20243;-68
2023/03/15 09:50:51;;;;;;;11.40;8.90;;;6.00;99.90;;;;;;4975439;28;20179;-68
2023/03/15 09:53:46;;;;;;;9.50;7.90;;;6.00;99.90;;;;;;4966678;28;20184;-68
2023/03/15 09:56:28;;;;;;;9.20;7.70;;;6.00;99.90;;;;;;4975604;28;20196;-68
2023/03/15 09:58:58;;;;;;;9.00;6.90;;;6.00;99.90;;;;;;4964486;28;20289;-68
2023/03/15 10:01:45;;;;;;;9.03;7.00;;;6.10;99.90;;;;;;4975892;28;20357;-69
2023/03/15 10:04:15;;;;;;;9.37;7.00;;;6.20;99.90;;;;;;4974858;28;20283;-67
2023/03/15 10:06:48;;;;;;;9.37;7.17;;;6.30;99.90;;;;;;4985739;28;20230;-69
2023/03/15 10:09:25;;;;;;;8.33;6.93;;;6.60;99.90;;;;;;4971450;28;20180;-67
2023/03/15 10:12:13;;;;;;;8.73;7.20;;;6.90;99.90;;;;;;4970434;28;20248;-67
2023/03/15 10:14:46;;;;;;;9.80;7.73;;;7.10;99.90;;;;;;4987633;28;20203;-67
2023/03/15 10:17:16;;;;;;;11.03;7.77;;;7.30;99.90;;;;;;4973794;28;20271;-66
2023/03/15 10:19:53;;;;;;;11.80;8.53;;;7.50;99.90;;;;;;4980046;28;20239;-68
2023/03/15 10:22:37;;;;;;;11.00;7.93;;;7.60;99.90;;;;;;4969347;28;20187;-66
2023/03/15 10:25:22;;;;;;;13.17;9.03;;;7.60;99.90;;;;;;4986000;28;22094;-68
2023/03/15 10:27:53;;;;;;;10.77;8.27;;;7.60;99.90;;;;;;4991217;28;20573;-69
2023/03/15 10:30:32;;;;;;;12.20;7.77;;;7.60;99.90;;;;;;4989735;28;20203;-66
2023/03/15 10:33:05;;;;;;;12.00;7.73;;;7.70;99.90;;;;;;4979342;28;20231;-67
2023/03/15 10:35:33;;;;;;;9.97;7.70;;;8.00;99.90;;;;;;4974621;28;20215;-68
2023/03/15 10:38:01;;;;;;;9.70;6.87;;;8.20;99.90;;;;;;4973689;28;20198;-66
2023/03/15 10:40:48;;;;;;;8.33;6.60;;;8.20;99.90;;;;;;4972775;28;20243;-68
2023/03/15 10:43:23;;;;;;;8.70;6.07;;;8.30;99.90;;;;;;4973993;28;20219;-65
2023/03/15 10:46:20;;;;;;;8.23;6.27;;;8.60;99.90;;;;;;4978138;28;20196;-66
2023/03/15 10:48:59;;;;;;;7.07;5.63;;;9.00;99.90;;;;;;4969203;28;20207;-67
2023/03/15 10:51:36;;;;;;;7.03;5.90;;;9.30;99.90;;;;;;4974069;28;20211;-68
2023/03/15 10:54:18;;;;;;;8.63;6.13;;;9.60;99.90;;;;;;4974262;28;20184;-68
2023/03/15 10:56:58;;;;;;;10.80;6.43;;;9.80;99.90;;;;;;4974992;28;20194;-68
2023/03/15 10:59:27;;;;;;;7.33;6.10;;;10.10;99.90;;;;;;4974154;28;20184;-68
2023/03/15 11:02:15;;;;;;;10.43;6.47;;;10.40;99.90;;;;;;4989492;28;20207;-67
2023/03/15 11:04:57;;;;;;;8.47;5.73;;;10.60;99.90;;;;;;4946592;28;20311;-68
2023/03/15 11:07:26;;;;;;;8.70;5.43;;;10.80;99.90;;;;;;4976195;28;20190;-67
2023/03/15 11:10:05;;;;;;;7.50;5.38;;;10.90;99.90;;;;;;4977845;28;20187;-68
2023/03/15 11:12:33;;;;;;;7.10;5.63;;;11.10;99.90;;;;;;4971643;28;20188;-68
2023/03/15 11:15:04;;;;;;;8.13;6.10;;;11.30;99.90;;;;;;4974387;28;20180;-66
2023/03/15 11:17:36;;;;;;;7.20;5.70;;;11.30;99.90;;;;;;4975693;28;20216;-68
2023/03/15 11:20:17;;;;;;;7.70;4.95;;;11.40;99.90;;;;;;4975968;28;20370;-68
2023/03/15 11:22:43;;;;;;;5.95;4.88;;;11.30;99.90;;;;;;4975564;28;20175;-69
2023/03/15 11:25:16;;;;;;;5.82;4.65;;;11.00;99.90;;;;;;4975942;28;20164;-66
2023/03/15 11:27:50;;;;;;;7.22;4.60;;;10.90;99.90;;;;;;4975878;28;20180;-67
2023/03/15 11:30:17;;;;;;;5.97;4.07;;;10.90;99.90;;;;;;4976056;28;20202;-66
2023/03/15 11:32:46;;;;;;;7.22;4.78;;;11.10;99.90;;;;;;4975401;28;20171;-68
2023/03/15 11:35:31;;;;;;;4.78;4.28;;;11.20;99.90;;;;;;4975824;28;20266;-67
2023/03/15 11:38:06;;;;;;;5.70;4.10;;;11.30;99.90;;;;;;4975729;28;20282;-68
2023/03/15 11:40:35;;;;;;;4.47;4.07;;;11.30;99.90;;;;;;4975727;28;20159;-67
2023/03/15 11:43:16;;;;;;;4.90;3.97;;;11.30;99.90;;;;;;4974166;28;20215;-67
2023/03/15 11:46:11;;;;;;;5.53;3.85;;;11.20;99.90;;;;;;4986015;28;20268;-67
2023/03/15 11:48:45;;;;;;;7.03;4.30;;;11.10;99.90;;;;;;4955363;28;20188;-67
2023/03/15 11:51:14;;;;;;;5.20;4.22;;;11.10;99.90;;;;;;4973359;28;20211;-67
2023/03/15 11:54:03;;;;;;;5.70;4.40;;;11.20;99.90;;;;;;4973138;28;20186;-67
2023/03/15 11:57:30;;;;;;;5.90;4.45;;;11.40;99.90;;;;;;4965743;28;20184;-65
2023/03/15 12:00:14;;;;;;;5.30;4.05;;;11.80;99.90;;;;;;4910415;29;20190;-65
2023/03/15 12:02:55;;;;;;;5.18;3.80;;;12.10;99.90;;;;;;4922320;29;20178;-66
2023/03/15 12:05:50;;;;;;;6.22;4.22;;;12.40;99.90;;;;;;4965821;28;20208;-65
2023/03/15 12:08:45;;;;;;;4.63;4.07;;;12.80;99.90;;;;;;4972662;28;20200;-66
2023/03/15 12:11:20;;;;;;;4.88;4.28;;;13.10;99.90;;;;;;4970957;28;20187;-65
2023/03/15 12:13:58;;;;;;;5.72;4.50;;;13.40;99.90;;;;;;4985609;28;20199;-66
2023/03/15 12:16:36;;;;;;;5.07;4.57;;;13.70;99.90;;;;;;4973081;28;20188;-66
2023/03/15 12:19:15;;;;;;;4.75;4.22;;;13.90;99.90;;;;;;4973101;28;20192;-65
2023/03/15 12:21:44;;;;;;;5.55;4.63;;;14.10;99.90;;;;;;4986193;28;20205;-65
2023/03/15 12:24:18;;;;;;;5.88;4.65;;;14.20;99.90;;;;;;4971480;28;20215;-67
2023/03/15 12:26:57;;;;;;;6.57;4.18;;;14.10;99.90;;;;;;4988389;28;20203;-65
2023/03/15 12:29:27;;;;;;;8.73;4.03;;;14.00;99.90;;;;;;4990427;28;20230;-66
2023/03/15 12:32:13;;;;;;;4.70;3.60;;;14.00;99.90;;;;;;4972124;28;20184;-67
2023/03/15 12:34:44;;;;;;;4.40;3.38;;;14.00;99.90;;;;;;4988409;28;20199;-67
2023/03/15 12:37:15;;;;;;;5.43;3.20;;;13.90;99.90;;;;;;4984637;28;20206;-67
2023/03/15 12:39:51;;;;;;;3.33;2.78;;;13.80;99.90;;;;;;4986234;28;20196;-67
2023/03/15 12:42:32;;;;;;;4.68;2.80;;;13.80;99.90;;;;;;4973159;28;20188;-67
2023/03/15 12:45:16;;;;;;;3.90;3.13;;;13.90;99.90;;;;;;4971673;28;20231;-63
2023/03/15 12:47:51;;;;;;;4.75;3.15;;;13.90;99.90;;;;;;4972941;28;20184;-66
2023/03/15 12:50:38;;;;;;;4.45;3.42;;;13.80;99.90;;;;;;4988864;28;20193;-66
2023/03/15 12:53:18;;;;;;;3.08;2.58;;;13.80;99.90;;;;;;4984984;28;20191;-65
2023/03/15 12:55:45;;;;;;;3.17;2.30;;;13.80;99.90;;;;;;4981734;28;20181;-68
2023/03/15 12:58:12;;;;;;;3.55;2.17;;;13.80;99.90;;;;;;4990807;28;20299;-68
2023/03/15 13:00:40;;;;;;;2.78;2.03;;;13.70;99.90;;;;;;4975152;28;20184;-66
2023/03/15 13:03:15;;;;;;;3.75;1.90;;;13.60;99.90;;;;;;4969105;28;20211;-68
2023/03/15 13:06:09;;;;;;;5.43;1.58;;;13.60;99.90;;;;;;4974902;28;20198;-68
2023/03/15 13:08:50;;;;;;;2.83;1.45;;;13.60;99.90;;;;;;4978860;28;20181;-64
2023/03/15 13:11:29;;;;;;;2.60;1.30;;;13.50;99.90;;;;;;4982162;28;20201;-66
2023/03/15 13:14:07;;;;;;;2.38;1.10;;;13.40;99.90;;;;;;4987472;28;20172;-67